createdAt,value
2023-03-10T00:04:56.428Z,12.72
2023-03-10T00:09:58.111Z,14.36
2023-03-10T00:14:59.784Z,13.63
2023-03-10T00:20:01.334Z,12.88
2023-03-10T00:25:03.479Z,13.32
2023-03-10T00:30:05.625Z,13.30
2023-03-10T00:35:07.672Z,13.65
2023-03-10T00:40:11.084Z,12.95
2023-03-10T00:45:12.740Z,11.74
2023-03-10T00:50:14.316Z,11.01
2023-03-10T00:55:15.978Z,11.32
2023-03-10T01:00:18.158Z,10.58
2023-03-10T01:05:20.258Z,10.89
2023-03-10T01:10:21.834Z,10.82
2023-03-10T01:15:23.565Z,12.03
2023-03-10T01:20:25.220Z,11.77
2023-03-10T01:25:28.159Z,13.18
2023-03-10T01:30:29.739Z,14.12
2023-03-10T01:35:31.635Z,11.35
2023-03-10T01:40:33.546Z,12.08
2023-03-10T01:45:37.749Z,12.61
2023-03-10T01:50:40.096Z,12.22
2023-03-10T01:55:46.629Z,10.72
2023-03-10T02:00:49.952Z,12.23
2023-03-10T02:06:02.583Z,10.76
2023-03-10T02:11:05.396Z,11.68
2023-03-10T02:16:07.666Z,12.35
2023-03-10T02:21:16.180Z,12.17
2023-03-10T02:26:29.961Z,12.68
2023-03-10T02:31:31.809Z,11.44
2023-03-10T02:36:33.478Z,13.26
2023-03-10T02:41:39.800Z,13.71
2023-03-10T02:46:41.386Z,12.88
2023-03-10T02:51:46.240Z,11.75
2023-03-10T02:56:47.856Z,13.71
2023-03-10T03:01:49.488Z,12.30
2023-03-10T03:06:51.080Z,12.02
2023-03-10T03:11:52.660Z,13.05
2023-03-10T03:16:54.307Z,13.81
2023-03-10T03:21:56.041Z,13.83
2023-03-10T03:26:57.869Z,12.58
2023-03-10T03:31:59.622Z,12.67
2023-03-10T03:37:01.194Z,11.32
2023-03-10T03:42:02.826Z,13.05
2023-03-10T03:47:05.322Z,12.79
2023-03-10T03:52:07.491Z,11.92
2023-03-10T03:57:09.144Z,13.70
2023-03-10T04:02:10.811Z,14.01
2023-03-10T04:07:13.060Z,13.65
2023-03-10T04:12:14.661Z,13.64
2023-03-10T04:17:16.854Z,10.31
2023-03-10T04:22:18.477Z,11.76
2023-03-10T04:27:20.561Z,11.48
2023-03-10T04:32:22.198Z,10.51
2023-03-10T04:37:23.840Z,13.97
2023-03-10T04:42:27.542Z,12.01
2023-03-10T04:47:29.102Z,13.01
2023-03-10T04:52:30.670Z,12.12
2023-03-10T04:57:32.268Z,12.02
2023-03-10T05:02:37.663Z,12.90
2023-03-10T05:07:39.354Z,11.03
2023-03-10T05:12:42.295Z,11.74
2023-03-10T05:17:43.889Z,12.07
2023-03-10T05:22:45.542Z,12.46
2023-03-10T05:27:47.138Z,13.03
2023-03-10T05:32:48.994Z,11.07
2023-03-10T05:37:50.832Z,11.57
2023-03-10T05:42:52.372Z,10.95
2023-03-10T05:47:53.983Z,10.59
2023-03-10T05:52:55.594Z,10.70
2023-03-10T05:57:57.258Z,13.12
2023-03-10T06:02:58.999Z,11.46
2023-03-10T06:08:00.619Z,12.80
2023-03-10T06:13:02.378Z,10.82
2023-03-10T06:18:04.034Z,10.51
2023-03-10T06:23:06.780Z,10.92
2023-03-10T06:28:10.743Z,12.53
2023-03-10T06:33:12.516Z,11.05
2023-03-10T06:38:14.319Z,11.77
2023-03-10T06:43:16.572Z,11.44
2023-03-10T06:48:18.201Z,13.06
2023-03-10T06:53:21.260Z,11.97
2023-03-10T06:58:22.853Z,13.35
2023-03-10T07:03:26.354Z,14.65
2023-03-10T07:08:29.181Z,12.89
2023-03-10T07:13:30.752Z,13.15
2023-03-10T07:18:32.900Z,12.84
2023-03-10T07:23:34.493Z,13.72
2023-03-10T07:28:37.239Z,14.20
2023-03-10T07:33:39.512Z,13.50
2023-03-10T07:38:41.577Z,14.00
2023-03-10T07:43:43.532Z,14.08
2023-03-10T07:48:45.183Z,13.54
2023-03-10T07:53:46.815Z,13.21
2023-03-10T07:58:48.746Z,13.21
2023-03-10T08:03:50.513Z,13.06
2023-03-10T08:08:52.593Z,14.31
2023-03-10T08:13:54.264Z,13.04
2023-03-10T08:18:55.916Z,13.47
2023-03-10T08:23:57.503Z,14.06
2023-03-10T08:28:59.071Z,13.53
2023-03-10T08:34:00.768Z,13.21
2023-03-10T08:39:05.510Z,14.42
2023-03-10T08:44:07.159Z,14.25
2023-03-10T08:49:09.831Z,15.00
2023-03-10T08:54:13.814Z,14.46
2023-03-10T08:59:15.732Z,14.66
2023-03-10T09:04:17.711Z,14.86
2023-03-10T09:09:19.352Z,14.71
2023-03-10T09:14:21.096Z,12.27
2023-03-10T09:19:22.697Z,14.03
2023-03-10T09:24:24.979Z,13.10
2023-03-10T09:29:42.277Z,11.05
2023-03-10T09:34:45.483Z,13.62
2023-03-10T09:39:47.197Z,10.99
2023-03-10T09:45:19.152Z,13.27
2023-03-10T09:50:26.732Z,13.36
2023-03-10T09:55:36.645Z,13.26
2023-03-10T10:00:41.217Z,13.28
2023-03-10T10:05:44.952Z,14.67
2023-03-10T10:10:50.899Z,12.56
2023-03-10T10:16:18.388Z,12.08
2023-03-10T10:21:41.748Z,12.39
2023-03-10T10:26:44.001Z,13.26
2023-03-10T10:32:04.862Z,13.54
2023-03-10T10:37:28.609Z,13.97
2023-03-10T10:42:33.546Z,12.00
2023-03-10T10:47:46.318Z,14.72
2023-03-10T10:52:50.609Z,10.43
2023-03-10T10:58:00.440Z,12.75
2023-03-10T11:06:34.896Z,10.96
2023-03-10T11:11:45.543Z,11.62
2023-03-10T11:17:20.967Z,11.64
2023-03-10T11:22:34.867Z,11.90
2023-03-10T11:27:53.541Z,12.16
2023-03-10T11:33:01.171Z,12.41
2023-03-10T11:38:28.953Z,12.69
2023-03-10T11:43:42.743Z,11.74
2023-03-10T11:48:57.559Z,11.21
2023-03-10T11:54:04.374Z,11.54
2023-03-10T11:59:15.776Z,11.58
2023-03-10T12:04:44.652Z,11.48
2023-03-10T12:09:50.669Z,12.20
2023-03-10T12:14:53.915Z,12.24
2023-03-10T12:20:26.247Z,10.61
2023-03-10T12:25:32.697Z,11.18
2023-03-10T12:30:56.531Z,11.42
2023-03-10T12:36:21.226Z,11.49
2023-03-10T12:41:25.800Z,11.08
2023-03-10T12:46:44.537Z,10.82
2023-03-10T12:52:02.040Z,11.35
2023-03-10T12:57:30.830Z,11.78
2023-03-10T13:02:39.169Z,12.38
2023-03-10T13:07:47.524Z,10.81
2023-03-10T13:12:51.602Z,12.28
2023-03-10T13:17:55.327Z,12.35
2023-03-10T13:22:59.180Z,11.68
2023-03-10T13:28:09.862Z,12.38
2023-03-10T13:33:24.017Z,11.05
2023-03-10T13:38:27.359Z,10.83
2023-03-10T13:43:40.540Z,11.20
2023-03-10T13:48:43.261Z,11.83
2023-03-10T13:53:47.204Z,11.46
2023-03-10T13:58:51.543Z,10.98
2023-03-10T14:03:58.987Z,11.07
2023-03-10T14:09:23.371Z,10.61
2023-03-10T14:14:30.590Z,10.37
2023-03-10T14:19:41.583Z,9.74
2023-03-10T14:24:43.210Z,10.25
2023-03-10T14:30:15.632Z,10.58
2023-03-10T14:35:20.293Z,11.88
2023-03-10T14:40:24.745Z,12.72
2023-03-10T14:45:35.169Z,10.23
2023-03-10T14:50:36.932Z,10.67
2023-03-10T14:55:39.541Z,10.39
2023-03-10T15:00:41.182Z,11.19
2023-03-10T15:05:48.737Z,10.88
2023-03-10T15:10:52.556Z,10.65
2023-03-10T15:15:54.484Z,9.89
2023-03-10T15:21:03.419Z,11.92
2023-03-10T15:26:09.600Z,9.10
2023-03-10T15:31:11.492Z,9.54
2023-03-10T15:36:13.112Z,9.54
2023-03-10T15:41:17.014Z,10.14
2023-03-10T15:46:18.714Z,10.43
2023-03-10T15:51:21.091Z,10.84
2023-03-10T15:56:22.987Z,9.70
2023-03-10T16:01:24.884Z,10.49
2023-03-10T16:06:27.631Z,9.31
2023-03-10T16:11:29.356Z,10.49
2023-03-10T16:16:30.969Z,10.35
2023-03-10T16:21:32.661Z,10.56
2023-03-10T16:26:34.367Z,11.15
2023-03-10T16:31:36.012Z,10.75
2023-03-10T16:36:37.797Z,10.74
2023-03-10T16:41:39.378Z,9.75
2023-03-10T16:46:41.171Z,10.00
2023-03-10T16:51:45.111Z,8.70
2023-03-10T16:56:52.300Z,9.42
2023-03-10T17:01:53.937Z,9.99
2023-03-10T17:06:55.631Z,7.81
2023-03-10T17:11:57.382Z,7.44
2023-03-10T17:17:00.339Z,8.76
2023-03-10T17:22:01.979Z,8.29
2023-03-10T17:27:03.882Z,9.24
2023-03-10T17:32:05.847Z,9.13
2023-03-10T17:37:07.537Z,9.74
2023-03-10T17:42:09.136Z,9.20
2023-03-10T17:47:12.229Z,9.21
2023-03-10T17:52:13.860Z,9.12
2023-03-10T17:57:15.542Z,10.58
2023-03-10T18:02:17.179Z,8.25
2023-03-10T18:07:18.887Z,9.74
2023-03-10T18:12:20.555Z,8.26
2023-03-10T18:17:22.236Z,9.99
2023-03-10T18:22:23.832Z,8.19
2023-03-10T18:27:25.470Z,8.20
2023-03-10T18:32:27.705Z,9.13
2023-03-10T18:37:32.337Z,6.77
2023-03-10T18:42:33.978Z,7.04
2023-03-10T18:47:35.621Z,10.05
2023-03-10T18:52:37.263Z,9.88
2023-03-10T18:57:39.377Z,9.05
2023-03-10T19:02:44.359Z,7.46
2023-03-10T19:07:46.077Z,8.38
2023-03-10T19:12:47.898Z,8.47
2023-03-10T19:17:49.509Z,7.83
2023-03-10T19:22:51.261Z,6.08
2023-03-10T19:27:53.030Z,6.90
2023-03-10T19:32:54.714Z,7.46
2023-03-10T19:37:56.478Z,8.09
2023-03-10T19:42:58.152Z,7.34
2023-03-10T19:47:59.780Z,7.21
2023-03-10T19:53:01.372Z,7.27
2023-03-10T19:58:02.911Z,7.73
2023-03-10T20:03:04.684Z,7.14
2023-03-10T20:08:06.468Z,7.09
2023-03-10T20:13:08.639Z,6.20
